OSOK1: Oswego hwy 160

                                SHEF ID:       OSOK1     Oswego hwy 160
STATION TYPE:

PRECIP STAGE RIV-FLOW VOLTAGE BAT-LOAD
in ft cfs volt volt
Ccp-Rev Ccp-Rev Ccp-Rev Ccp-Rev Ccp-Rev
(America/Chicago)
05/07 00:00 0.00 13.65 4663 12.77 12.51
05/07 01:00 0.00 13.63 4637 12.75 12.48
05/07 02:00 0.00 13.60 4599 12.73 12.46
05/07 03:00 0.00 13.58 4573 12.71 12.44
05/07 04:00 0.00 13.55 4535 12.69 12.42
05/07 05:00 0.00 13.51 4485 12.67 12.40
05/07 06:00 0.00 13.45 4409 12.65 12.37
05/07 07:00 0.00 13.39 4334 12.78 12.40
05/07 08:00 0.00 13.33 4259 14.18 13.44
05/07 09:00 0.00 13.28 4197 13.87 13.39
05/07 10:00 0.00 13.21 4111 13.32 13.08
05/07 11:00 0.00 13.14 4026 13.29 13.00
05/07 12:00 0.00 13.06 3929 13.34 12.96
05/07 13:00 0.00 12.99 3845 13.38 13.01
05/07 14:00 0.00 12.90 3738 13.42 13.01
05/07 15:00 0.00 12.84 3668 13.35 13.03
05/07 16:00 0.00 12.76 3574 13.32 12.94
05/07 17:00 0.00 12.70 3505 13.29 12.91
05/07 18:00 0.00 12.62 3413 13.29 12.88
05/07 19:00 0.00 12.55 3334 13.41 12.89
05/07 20:00 0.00 12.49 3267 13.12 12.88
05/07 21:00 0.00 12.44 3212 12.90 12.67
05/07 22:00 0.00 12.37 3135 12.82 12.57
05/07 23:00 0.00 12.31 3070 12.79 12.53
Data processed at Fri 08May2026 04:50 GMT

NOTICE: If you are parsing this page

Please convert to using our Data API. Starting early 2026 we will be migrating to: https://water.usace.army.mil with modern pages rendered in JavaScript. When this migration completes you will no longer be able to scrape this page! CWMSDataAPI (CDA)

Timeseries IDs (TSIDs)

TSIDs used from left to right in the data table
OSWN.Precip-Inc.Total.1Hour.1Hour.Ccp-Rev
OSWN.Stage.Inst.1Hour.0.Ccp-Rev
OSWN.Flow.Inst.1Hour.0.Ccp-Rev
OSWN.Volt-Battery.Inst.1Hour.0.Ccp-Rev
OSWN.Volt-Battery Load.Inst.1Hour.0.Ccp-Rev

                            

All information presented herein is the property of the government of the United States of America and may be revised or deleted at any time without prior notice. Dissemination of this information without the expressed written consent of the Public Affairs Office, Tulsa District U.S. Army Corps of Engineers is strictly prohibited. These data are gathered electronically and, as presented, have NOT undergone any form of quality control. These data are NOT guaranteed to be valid or correct.